Time;durP1;ratioP1;P1;durP2;ratioP2;P2;SDS_P1;SDS_P2;PMS_P1;PMS_P2;Temp;Humidity;BMP_temperature;BMP_pressure;BME280_temperature;BME280_humidity;BME280_pressure;Samples;Min_cycle;Max_cycle;Signal;HPM_P1;HPM_P2
2021/05/19 00:00:10;;;;;;;;;;;;;;;7.95;100.00;93009.97;5111464;28;19920;-80
2021/05/19 00:02:37;;;;;;;;;;;;;;;7.95;100.00;93007.41;5112679;28;19919;-79
2021/05/19 00:05:03;;;;;;;;;;;;;;;7.96;100.00;93016.66;5112428;28;19973;-79
2021/05/19 00:07:29;;;;;;;;;;;;;;;7.96;100.00;93012.31;5112831;28;19924;-79
2021/05/19 00:09:55;;;;;;;;;;;;;;;7.98;100.00;93005.25;5112476;28;19919;-79
2021/05/19 00:12:21;;;;;;;;;;;;;;;8.00;100.00;93013.50;5112301;28;19949;-79
2021/05/19 00:14:47;;;;;;;;;;;;;;;8.05;100.00;93014.69;5112461;28;19920;-79
2021/05/19 00:17:14;;;;;;;;;;;;;;;8.01;100.00;93015.06;5112212;28;19923;-79
2021/05/19 00:19:40;;;;;;;;;;;;;;;8.04;100.00;93013.91;5112291;28;19924;-79
2021/05/19 00:22:07;;;;;;;;;;;;;;;8.01;100.00;93011.75;5112341;28;19923;-79
2021/05/19 00:24:33;;;;;;;;;;;;;;;8.05;100.00;93012.13;5111847;28;19923;-79
2021/05/19 00:26:59;;;;;;;;;;;;;;;8.04;100.00;93010.56;5112171;28;20268;-79
2021/05/19 00:29:25;;;;;;;;;;;;;;;8.05;100.00;93009.56;5112062;27;20287;-79
2021/05/19 00:31:51;;;;;;;;;;;;;;;8.05;100.00;93009.56;5112283;28;20294;-79
2021/05/19 00:34:17;;;;;;;;;;;;;;;7.99;100.00;93011.94;5112092;28;19952;-79
2021/05/19 00:36:44;;;;;;;;;;;;;;;7.93;100.00;93006.81;5111006;28;20386;-79
2021/05/19 00:39:10;;;;;;;;;;;;;;;7.78;100.00;93004.47;5111605;28;20383;-79
2021/05/19 00:41:38;;;;;;;;;;;;;;;7.77;100.00;93008.03;5112066;28;19935;-79
2021/05/19 00:44:05;;;;;;;;;;;;;;;7.70;100.00;93008.81;5111680;28;19942;-79
2021/05/19 00:46:31;;;;;;;;;;;;;;;7.70;100.00;93008.81;5111398;28;19927;-79
2021/05/19 00:48:57;;;;;;;;;;;;;;;7.66;100.00;93001.72;5111413;28;20427;-79
2021/05/19 00:51:23;;;;;;;;;;;;;;;7.60;100.00;93001.50;5111482;28;19946;-79
2021/05/19 00:53:52;;;;;;;;;;;;;;;7.59;100.00;93004.28;5111412;28;19927;-79
2021/05/19 00:56:18;;;;;;;;;;;;;;;7.55;100.00;93014.09;5111175;28;19919;-79
2021/05/19 00:58:44;;;;;;;;;;;;;;;7.54;100.00;93004.84;5111095;28;19920;-79
2021/05/19 01:01:10;;;;;;;;;;;;;;;7.54;100.00;93011.75;5111253;28;20027;-80
2021/05/19 01:03:37;;;;;;;;;;;;;;;7.51;100.00;93004.47;5111456;28;19920;-79
2021/05/19 01:06:07;;;;;;;;;;;;;;;7.46;100.00;93003.28;5111163;28;19919;-78
2021/05/19 01:11:18;;;;;;;;;;;;;;;7.24;100.00;93000.09;5110912;28;20429;-79
2021/05/19 01:13:45;;;;;;;;;;;;;;;7.20;100.00;92997.16;5110720;28;19920;-78
2021/05/19 01:16:12;;;;;;;;;;;;;;;7.15;100.00;92999.50;5110829;28;19926;-79
2021/05/19 01:18:40;;;;;;;;;;;;;;;7.14;100.00;93000.50;5110765;28;19920;-79
2021/05/19 01:21:06;;;;;;;;;;;;;;;7.07;100.00;92997.13;5110839;28;20406;-78
2021/05/19 01:23:33;;;;;;;;;;;;;;;7.04;100.00;93000.84;5111134;28;19968;-79
2021/05/19 01:26:00;;;;;;;;;;;;;;;7.07;100.00;93010.69;5110773;28;19919;-80
2021/05/19 01:28:26;;;;;;;;;;;;;;;7.11;100.00;93005.16;5111015;28;20267;-77
2021/05/19 01:30:52;;;;;;;;;;;;;;;7.15;100.00;93003.81;5110983;28;19924;-77
2021/05/19 01:33:18;;;;;;;;;;;;;;;7.14;100.00;92999.69;5111217;28;19920;-79
2021/05/19 01:35:44;;;;;;;;;;;;;;;7.15;100.00;92999.50;5110247;28;19927;-80
2021/05/19 01:38:12;;;;;;;;;;;;;;;7.08;100.00;92998.69;5110861;28;19930;-81
2021/05/19 01:40:39;;;;;;;;;;;;;;;6.99;100.00;92998.06;5110744;28;19924;-84
2021/05/19 01:43:06;;;;;;;;;;;;;;;6.92;100.00;92994.72;5110853;28;19920;-82
2021/05/19 01:45:32;;;;;;;;;;;;;;;6.91;100.00;92998.25;5110472;28;19930;-82
2021/05/19 01:47:58;;;;;;;;;;;;;;;6.91;100.00;93001.59;5110516;28;20014;-81
2021/05/19 01:50:26;;;;;;;;;;;;;;;6.89;100.00;93010.44;5110850;28;19919;-81
2021/05/19 01:52:53;;;;;;;;;;;;;;;6.94;100.00;93008.06;5110635;28;19927;-81
2021/05/19 01:55:19;;;;;;;;;;;;;;;6.88;100.00;93016.50;5110183;28;20374;-80
2021/05/19 01:57:48;;;;;;;;;;;;;;;6.79;100.00;93003.13;5110535;28;19919;-81
2021/05/19 02:00:15;;;;;;;;;;;;;;;6.80;100.00;93004.69;5110602;28;19919;-81
2021/05/19 02:02:41;;;;;;;;;;;;;;;6.79;100.00;93003.13;5110567;28;20358;-80
2021/05/19 02:05:10;;;;;;;;;;;;;;;6.79;100.00;93005.69;5110534;28;19919;-81
2021/05/19 02:07:37;;;;;;;;;;;;;;;6.81;100.00;93006.28;5110505;28;19930;-81
2021/05/19 02:10:04;;;;;;;;;;;;;;;6.79;100.00;93003.13;5110376;28;20029;-81
2021/05/19 02:12:30;;;;;;;;;;;;;;;6.71;100.00;92998.97;5110484;28;19931;-82
2021/05/19 02:14:57;;;;;;;;;;;;;;;6.72;100.00;92997.22;5110465;28;19942;-82
2021/05/19 02:17:25;;;;;;;;;;;;;;;6.63;100.00;92991.47;5110118;28;19953;-82
2021/05/19 02:19:51;;;;;;;;;;;;;;;6.56;100.00;92991.44;5127769;28;19930;-82
2021/05/19 02:22:17;;;;;;;;;;;;;;;6.58;100.00;92988.72;5128382;28;19920;-81
2021/05/19 02:24:44;;;;;;;;;;;;;;;6.58;100.00;92996.38;5124645;28;19965;-82
2021/05/19 02:27:10;;;;;;;;;;;;;;;6.64;100.00;92993.06;5114209;28;20540;-81
2021/05/19 02:29:36;;;;;;;;;;;;;;;6.68;100.00;92991.69;5114437;28;19927;-80
2021/05/19 02:32:03;;;;;;;;;;;;;;;6.72;100.00;92987.00;5114026;28;20032;-81
2021/05/19 02:34:29;;;;;;;;;;;;;;;6.67;100.00;92985.03;5114444;28;19920;-81
2021/05/19 02:36:55;;;;;;;;;;;;;;;6.63;100.00;92978.72;5114508;28;20268;-82
2021/05/19 02:39:21;;;;;;;;;;;;;;;6.57;100.00;92970.06;5113973;28;19923;-82
2021/05/19 02:41:47;;;;;;;;;;;;;;;6.52;100.00;92969.84;5113916;28;19923;-82
2021/05/19 02:44:13;;;;;;;;;;;;;;;6.52;100.00;92965.53;5114229;28;19919;-82
2021/05/19 02:46:39;;;;;;;;;;;;;;;6.50;100.00;92970.03;5113785;28;19926;-82
2021/05/19 02:49:06;;;;;;;;;;;;;;;6.48;100.00;92964.31;5113708;28;20405;-81
2021/05/19 02:51:34;;;;;;;;;;;;;;;6.41;100.00;92966.06;5114055;28;19931;-80
2021/05/19 02:54:00;;;;;;;;;;;;;;;6.41;100.00;92966.88;5113489;28;20500;-79
2021/05/19 02:56:26;;;;;;;;;;;;;;;6.41;100.00;92971.97;5113539;28;19972;-80
2021/05/19 02:58:52;;;;;;;;;;;;;;;6.37;100.00;92980.97;5113498;28;19923;-80
2021/05/19 03:01:19;;;;;;;;;;;;;;;6.37;100.00;92980.19;5113608;28;19923;-83
2021/05/19 03:03:45;;;;;;;;;;;;;;;6.36;100.00;92979.41;5113536;28;20371;-81
2021/05/19 03:06:12;;;;;;;;;;;;;;;6.30;100.00;92981.91;5113857;28;19931;-81
2021/05/19 03:08:38;;;;;;;;;;;;;;;6.23;100.00;92982.66;5113429;28;19919;-82
2021/05/19 03:11:05;;;;;;;;;;;;;;;6.18;100.00;92979.91;5113214;28;19924;-80
2021/05/19 03:13:31;;;;;;;;;;;;;;;6.13;100.00;92984.78;5113375;28;19920;-80
2021/05/19 03:15:57;;;;;;;;;;;;;;;6.09;100.00;92986.91;5113524;28;19931;-81
2021/05/19 03:18:23;;;;;;;;;;;;;;;5.87;100.00;92981.84;5113386;28;19920;-81
2021/05/19 03:20:49;;;;;;;;;;;;;;;6.02;100.00;92986.06;5113473;28;19933;-81
2021/05/19 03:23:16;;;;;;;;;;;;;;;6.13;100.00;92988.13;5113069;28;19939;-81
2021/05/19 03:25:43;;;;;;;;;;;;;;;6.17;100.00;92985.19;5112941;28;19919;-80
2021/05/19 03:28:09;;;;;;;;;;;;;;;6.21;100.00;92989.72;5113259;28;19923;-80
2021/05/19 03:30:35;;;;;;;;;;;;;;;6.23;100.00;92986.97;5113254;28;20299;-81
2021/05/19 03:33:02;;;;;;;;;;;;;;;6.23;100.00;92987.78;5113056;28;20263;-82
2021/05/19 03:35:28;;;;;;;;;;;;;;;6.32;100.00;92990.16;5112726;28;19923;-81
2021/05/19 03:37:54;;;;;;;;;;;;;;;6.36;100.00;92981.16;5112829;28;20363;-80
2021/05/19 03:40:21;;;;;;;;;;;;;;;6.38;100.00;92979.19;5112932;28;19930;-81
2021/05/19 03:42:47;;;;;;;;;;;;;;;6.41;100.00;92974.53;5112813;28;19920;-80
2021/05/19 03:45:14;;;;;;;;;;;;;;;6.44;100.00;92983.56;5112715;28;20370;-80
2021/05/19 03:47:40;;;;;;;;;;;;;;;6.47;100.00;92985.72;5112725;28;20704;-82
2021/05/19 03:50:08;;;;;;;;;;;;;;;6.48;100.00;92984.75;5113012;28;19920;-83
2021/05/19 03:52:34;;;;;;;;;;;;;;;6.54;100.00;92978.09;5112581;28;20378;-84
2021/05/19 03:55:00;;;;;;;;;;;;;;;6.67;100.00;92978.16;5112424;28;20229;-83
2021/05/19 03:57:28;;;;;;;;;;;;;;;6.71;100.00;92965.78;5112312;28;20333;-84
2021/05/19 03:59:54;;;;;;;;;;;;;;;6.77;100.00;92962.47;5112433;28;19919;-84
2021/05/19 04:02:20;;;;;;;;;;;;;;;6.81;100.00;92963.66;5112491;28;19923;-83
2021/05/19 04:04:46;;;;;;;;;;;;;;;6.92;100.00;92964.88;5112578;28;20009;-83
2021/05/19 04:07:12;;;;;;;;;;;;;;;6.88;100.00;92958.56;5112331;28;19919;-83
2021/05/19 04:09:38;;;;;;;;;;;;;;;6.92;100.00;92953.88;5112709;28;19924;-83
2021/05/19 04:12:04;;;;;;;;;;;;;;;7.06;100.00;92960.59;5112522;28;19919;-83
2021/05/19 04:14:31;;;;;;;;;;;;;;;7.10;100.00;92953.31;5112582;28;19919;-83
2021/05/19 04:16:57;;;;;;;;;;;;;;;7.22;100.00;92966.28;5112124;28;19920;-83
2021/05/19 04:19:23;;;;;;;;;;;;;;;7.29;100.00;92956.88;5111965;28;19920;-83
2021/05/19 04:21:49;;;;;;;;;;;;;;;7.39;100.00;92959.03;5112512;28;19924;-82
2021/05/19 04:24:15;;;;;;;;;;;;;;;7.46;100.00;92959.81;5111884;28;20375;-82
2021/05/19 04:26:41;;;;;;;;;;;;;;;7.55;100.00;92972.41;5111861;28;20426;-82
2021/05/19 04:29:08;;;;;;;;;;;;;;;7.63;100.00;92974.78;5112354;28;19919;-82
2021/05/19 04:31:34;;;;;;;;;;;;;;;7.71;100.00;92974.59;5112032;28;19923;-82
2021/05/19 04:34:01;;;;;;;;;;;;;;;7.76;100.00;92986.78;5111941;28;19931;-82
2021/05/19 04:36:27;;;;;;;;;;;;;;;7.73;100.00;92987.19;5111674;28;19923;-83
2021/05/19 04:38:53;;;;;;;;;;;;;;;7.74;100.00;92988.75;5112013;28;19920;-82
2021/05/19 04:41:20;;;;;;;;;;;;;;;7.67;100.00;92993.84;5111592;28;19920;-82
2021/05/19 04:43:46;;;;;;;;;;;;;;;7.65;100.00;92984.81;5111450;28;19920;-82
2021/05/19 04:46:12;;;;;;;;;;;;;;;7.49;100.00;92979.88;5111209;28;19920;-81
2021/05/19 04:48:39;;;;;;;;;;;;;;;7.60;100.00;92980.28;5111676;28;19929;-82
2021/05/19 04:51:05;;;;;;;;;;;;;;;7.73;100.00;92975.16;5111351;28;20382;-82
2021/05/19 04:53:32;;;;;;;;;;;;;;;7.89;100.00;92970.63;5111582;28;19920;-82
2021/05/19 04:55:58;;;;;;;;;;;;;;;7.98;100.00;92976.31;5111907;28;19935;-82
2021/05/19 04:58:26;;;;;;;;;;;;;;;8.24;100.00;92970.38;5108547;28;19920;-82
2021/05/19 05:00:52;;;;;;;;;;;;;;;8.43;100.00;92958.50;5109020;28;19920;-82
2021/05/19 05:03:18;;;;;;;;;;;;;;;8.63;100.00;92955.13;5111021;28;19931;-82
2021/05/19 05:05:45;;;;;;;;;;;;;;;8.77;100.00;92958.41;5110887;28;20010;-82
2021/05/19 05:08:11;;;;;;;;;;;;;;;8.97;100.00;92961.84;5110967;28;19919;-82
2021/05/19 05:10:37;;;;;;;;;;;;;;;9.08;100.00;92959.41;5111320;28;20290;-83
2021/05/19 05:13:03;;;;;;;;;;;;;;;9.27;99.85;92962.06;5111114;28;19919;-83
2021/05/19 05:15:30;;;;;;;;;;;;;;;9.51;99.45;92951.25;5111297;28;19920;-83
2021/05/19 05:17:56;;;;;;;;;;;;;;;9.75;98.46;92947.91;5110827;28;19923;-83
2021/05/19 05:20:24;;;;;;;;;;;;;;;9.96;97.33;92957.97;5110735;28;19920;-83
2021/05/19 05:22:51;;;;;;;;;;;;;;;10.16;96.90;92962.94;5110774;28;19927;-83
2021/05/19 05:25:18;;;;;;;;;;;;;;;10.35;97.34;92968.06;5110889;28;19927;-83
2021/05/19 05:27:46;;;;;;;;;;;;;;;10.44;96.84;92956.53;5110735;28;20055;-83
2021/05/19 05:30:13;;;;;;;;;;;;;;;10.47;96.02;92965.59;5110673;28;20370;-83
2021/05/19 05:32:39;;;;;;;;;;;;;;;10.43;95.59;92970.38;5110890;28;19947;-83
2021/05/19 05:35:06;;;;;;;;;;;;;;;10.21;95.59;92967.41;5110877;28;19919;-83
2021/05/19 05:37:32;;;;;;;;;;;;;;;10.18;96.35;92967.84;5110520;28;19928;-83
2021/05/19 05:39:59;;;;;;;;;;;;;;;10.54;93.70;92969.66;5111097;28;20509;-83
2021/05/19 05:42:26;;;;;;;;;;;;;;;10.75;94.19;92970.22;5110466;28;19923;-83
2021/05/19 05:44:52;;;;;;;;;;;;;;;10.89;93.00;92968.28;5110656;28;19919;-84
2021/05/19 05:47:18;;;;;;;;;;;;;;;11.39;93.79;92968.97;5110387;28;19926;-83
2021/05/19 05:49:44;;;;;;;;;;;;;;;11.74;92.18;92964.91;5110254;28;19930;-82
2021/05/19 05:52:10;;;;;;;;;;;;;;;12.01;89.64;92962.69;5110581;28;20366;-83
2021/05/19 05:54:36;;;;;;;;;;;;;;;12.42;89.73;92964.56;5110633;28;19920;-83
2021/05/19 05:57:03;;;;;;;;;;;;;;;12.75;91.15;92955.44;5109353;28;20375;-82
2021/05/19 05:59:30;;;;;;;;;;;;;;;13.04;84.07;92945.13;5110447;28;19926;-83
2021/05/19 06:01:56;;;;;;;;;;;;;;;13.18;81.40;92942.25;5110653;28;19924;-83
2021/05/19 06:04:22;;;;;;;;;;;;;;;13.32;82.54;92946.09;5110121;28;19920;-83
2021/05/19 06:06:48;;;;;;;;;;;;;;;13.49;82.94;92942.78;5110482;28;19987;-83
2021/05/19 06:09:14;;;;;;;;;;;;;;;13.67;83.21;92946.94;5110413;28;19919;-83
2021/05/19 06:11:40;;;;;;;;;;;;;;;13.89;81.66;92948.81;5110348;28;19923;-83
2021/05/19 06:14:07;;;;;;;;;;;;;;;14.23;81.56;92940.22;5110367;28;20002;-83
2021/05/19 06:16:33;;;;;;;;;;;;;;;14.62;80.38;92935.00;5109821;28;19923;-83
2021/05/19 06:18:59;;;;;;;;;;;;;;;14.90;76.67;92933.25;5109995;28;20370;-82
2021/05/19 06:21:25;;;;;;;;;;;;;;;15.23;76.10;92921.16;5110159;28;20366;-83
2021/05/19 06:23:51;;;;;;;;;;;;;;;15.56;76.36;92928.91;5110226;28;19992;-82
2021/05/19 06:26:17;;;;;;;;;;;;;;;15.80;73.21;92920.03;5110097;28;19924;-83
2021/05/19 06:28:43;;;;;;;;;;;;;;;16.01;74.21;92919.16;5109988;28;19927;-82
2021/05/19 06:31:10;;;;;;;;;;;;;;;16.18;71.64;92918.22;5110292;28;20268;-82
2021/05/19 06:33:36;;;;;;;;;;;;;;;16.24;70.58;92922.38;5109948;28;19920;-81
2021/05/19 06:36:03;;;;;;;;;;;;;;;16.33;71.68;92919.31;5110001;28;20290;-82
2021/05/19 06:38:29;;;;;;;;;;;;;;;16.32;71.25;92910.75;5109930;28;19930;-82
2021/05/19 06:40:55;;;;;;;;;;;;;;;16.36;71.27;92908.44;5110534;28;19920;-81
2021/05/19 06:43:21;;;;;;;;;;;;;;;16.34;70.78;92915.69;5109520;28;20386;-81
2021/05/19 06:45:47;;;;;;;;;;;;;;;16.33;71.62;92916.75;5110112;28;19924;-82
2021/05/19 06:48:14;;;;;;;;;;;;;;;16.26;71.15;92914.38;5109692;28;19926;-82
2021/05/19 06:50:40;;;;;;;;;;;;;;;16.43;71.21;92917.56;5109838;28;19973;-82
2021/05/19 06:53:07;;;;;;;;;;;;;;;16.47;70.06;92907.44;5109585;28;20129;-81
2021/05/19 06:55:33;;;;;;;;;;;;;;;16.59;69.54;92906.44;5109780;28;19927;-82
2021/05/19 06:57:59;;;;;;;;;;;;;;;16.80;70.30;92900.28;5109008;28;20390;-82
2021/05/19 07:00:25;;;;;;;;;;;;;;;17.02;68.37;92898.50;5110821;28;19927;-82
2021/05/19 07:02:51;;;;;;;;;;;;;;;17.15;67.94;92894.66;5118570;28;20298;-82
2021/05/19 07:05:18;;;;;;;;;;;;;;;17.34;68.06;92889.75;5120382;28;20268;-82
2021/05/19 07:07:46;;;;;;;;;;;;;;;17.55;66.92;92893.13;5119304;28;19919;-82
2021/05/19 07:10:13;;;;;;;;;;;;;;;17.73;64.68;92896.25;5123427;27;19924;-82
2021/05/19 07:12:39;;;;;;;;;;;;;;;17.88;66.70;92900.63;5122174;27;19924;-82
2021/05/19 07:15:11;;;;;;;;;;;;;;;18.15;64.08;92902.94;5123555;27;19919;-82
2021/05/19 07:17:37;;;;;;;;;;;;;;;18.29;64.33;92894.59;5124430;27;19926;-82
2021/05/19 07:20:04;;;;;;;;;;;;;;;18.45;61.24;92882.31;5124545;27;19924;-82
2021/05/19 07:22:31;;;;;;;;;;;;;;;18.60;62.57;92881.44;5124059;27;19926;-82
2021/05/19 07:24:57;;;;;;;;;;;;;;;18.94;61.41;92877.38;5122791;27;20390;-82
2021/05/19 07:27:23;;;;;;;;;;;;;;;19.54;59.81;92860.06;5128077;27;19926;-83
2021/05/19 07:29:49;;;;;;;;;;;;;;;20.18;59.06;92853.97;5125212;27;19919;-81
2021/05/19 07:32:15;;;;;;;;;;;;;;;20.69;54.72;92849.97;5124908;27;19928;-83
2021/05/19 07:34:41;;;;;;;;;;;;;;;20.96;51.50;92833.69;5126888;27;19923;-84
2021/05/19 07:37:07;;;;;;;;;;;;;;;21.28;48.84;92826.16;5114537;27;19920;-84
2021/05/19 07:39:35;;;;;;;;;;;;;;;21.38;47.44;92822.59;5113146;28;20305;-83
2021/05/19 07:42:01;;;;;;;;;;;;;;;21.41;47.07;92818.63;5107984;28;19930;-83
2021/05/19 07:44:27;;;;;;;;;;;;;;;21.58;47.84;92820.72;5110340;28;19924;-82
2021/05/19 07:46:53;;;;;;;;;;;;;;;21.55;43.85;92818.66;5112669;28;19923;-83
2021/05/19 07:49:19;;;;;;;;;;;;;;;21.63;45.18;92821.38;5112727;28;19947;-82
2021/05/19 07:51:45;;;;;;;;;;;;;;;21.78;45.21;92814.38;5112831;28;19920;-82
2021/05/19 07:54:15;;;;;;;;;;;;;;;21.89;41.77;92815.75;5112416;27;19977;-83
2021/05/19 07:56:50;;;;;;;;;;;;;;;21.99;42.25;92817.38;5112472;28;19980;-83
2021/05/19 07:59:18;;;;;;;;;;;;;;;22.11;43.63;92810.88;5112288;28;20014;-82
2021/05/19 08:02:01;;;;;;;;;;;;;;;22.32;42.33;92807.88;5112826;28;19964;-82
2021/05/19 08:04:28;;;;;;;;;;;;;;;22.48;41.26;92810.94;5112684;28;20342;-83
2021/05/19 08:06:54;;;;;;;;;;;;;;;22.55;42.12;92809.50;5112513;28;19943;-83
2021/05/19 08:09:20;;;;;;;;;;;;;;;22.37;38.04;92815.63;5112363;28;19923;-82
2021/05/19 08:11:47;;;;;;;;;;;;;;;22.38;39.79;92807.47;5115850;27;19976;-82
2021/05/19 08:14:14;;;;;;;;;;;;;;;22.06;39.43;92803.94;5122878;27;20071;-82
2021/05/19 08:16:40;;;;;;;;;;;;;;;21.96;38.03;92807.53;5118566;27;19924;-81
2021/05/19 08:19:06;;;;;;;;;;;;;;;22.05;40.80;92810.22;5121934;27;19942;-81
2021/05/19 08:21:32;;;;;;;;;;;;;;;22.17;40.67;92809.72;5111121;28;19948;-81
2021/05/19 08:23:58;;;;;;;;;;;;;;;22.11;39.61;92808.28;5112167;28;19924;-82
2021/05/19 08:26:24;;;;;;;;;;;;;;;21.94;39.03;92809.63;5111595;28;19920;-82
2021/05/19 08:28:52;;;;;;;;;;;;;;;21.87;40.50;92804.81;5111765;28;19926;-82
2021/05/19 08:31:19;;;;;;;;;;;;;;;21.66;41.48;92804.34;5110555;27;19972;-82
2021/05/19 08:33:45;;;;;;;;;;;;;;;21.48;41.20;92800.78;5119954;27;19923;-81
2021/05/19 08:36:12;;;;;;;;;;;;;;;21.45;40.87;92798.72;5111166;28;19920;-82
2021/05/19 08:38:38;;;;;;;;;;;;;;;21.33;41.53;92783.50;5115458;27;19924;-83
2021/05/19 08:41:04;;;;;;;;;;;;;;;21.54;41.45;92786.56;5121698;27;19919;-82
2021/05/19 08:43:31;;;;;;;;;;;;;;;21.69;42.09;92784.72;5116092;27;19924;-82
2021/05/19 08:45:58;;;;;;;;;;;;;;;21.70;40.68;92794.91;5111064;28;19924;-82
2021/05/19 08:48:24;;;;;;;;;;;;;;;21.74;40.84;92784.66;5111165;28;19926;-84
2021/05/19 08:50:50;;;;;;;;;;;;;;;21.87;40.42;92783.09;5111522;28;20324;-84
2021/05/19 08:53:16;;;;;;;;;;;;;;;21.91;39.76;92788.53;5111213;28;19966;-83
2021/05/19 08:55:43;;;;;;;;;;;;;;;21.83;40.56;92795.19;5111209;28;19926;-84
2021/05/19 08:58:09;;;;;;;;;;;;;;;21.82;41.03;92797.06;5111547;28;19924;-82
2021/05/19 09:00:35;;;;;;;;;;;;;;;21.69;41.53;92795.16;5111184;28;19966;-83
2021/05/19 09:03:09;;;;;;;;;;;;;;;21.80;39.68;92790.56;5111195;28;19930;-83
2021/05/19 09:05:35;;;;;;;;;;;;;;;21.95;37.95;92784.28;5111216;28;19993;-83
2021/05/19 09:08:05;;;;;;;;;;;;;;;21.94;41.60;92785.34;5111267;28;19947;-83
2021/05/19 09:10:31;;;;;;;;;;;;;;;22.01;38.33;92793.56;5111337;28;20320;-83
2021/05/19 09:12:57;;;;;;;;;;;;;;;21.89;39.94;92794.03;5111039;28;19927;-83
2021/05/19 09:15:24;;;;;;;;;;;;;;;21.97;41.47;92788.16;5110964;28;19924;-83
2021/05/19 09:17:55;;;;;;;;;;;;;;;21.92;38.45;92785.63;5110633;28;19920;-82
2021/05/19 09:20:22;;;;;;;;;;;;;;;21.94;40.43;92791.31;5110648;28;19930;-82
2021/05/19 09:22:50;;;;;;;;;;;;;;;21.88;37.71;92782.81;5111062;28;19969;-82
2021/05/19 09:25:18;;;;;;;;;;;;;;;21.99;39.70;92788.63;5110871;28;19931;-82
2021/05/19 09:27:45;;;;;;;;;;;;;;;22.02;39.79;92793.28;5110520;28;19924;-82
2021/05/19 09:30:11;;;;;;;;;;;;;;;22.20;39.77;92784.81;5110844;28;19920;-82
2021/05/19 09:32:39;;;;;;;;;;;;;;;22.21;39.09;92781.91;5110851;28;19923;-82
2021/05/19 09:35:06;;;;;;;;;;;;;;;22.11;39.74;92776.88;5110849;28;19920;-83
2021/05/19 09:37:34;;;;;;;;;;;;;;;22.11;40.09;92780.28;5110596;28;19923;-83
2021/05/19 09:40:00;;;;;;;;;;;;;;;22.08;40.20;92778.25;5110755;28;20325;-81
2021/05/19 09:42:27;;;;;;;;;;;;;;;22.14;40.86;92765.84;5110329;28;19930;-82
2021/05/19 09:44:55;;;;;;;;;;;;;;;22.38;40.83;92762.22;5110412;28;19926;-82
2021/05/19 09:47:38;;;;;;;;;;;;;;;22.58;40.07;92765.50;5104038;28;19924;-82
2021/05/19 09:50:05;;;;;;;;;;;;;;;22.51;39.50;92764.03;5107779;28;19923;-82
2021/05/19 09:52:31;;;;;;;;;;;;;;;22.49;39.99;92762.78;5110268;28;19927;-82
2021/05/19 09:55:03;;;;;;;;;;;;;;;22.35;39.41;92752.34;5110346;28;19924;-82
2021/05/19 09:57:40;;;;;;;;;;;;;;;22.38;39.71;92742.06;5110087;28;20382;-82
2021/05/19 10:00:07;;;;;;;;;;;;;;;22.06;40.28;92743.78;5110597;28;19926;-82
2021/05/19 10:02:33;;;;;;;;;;;;;;;22.00;38.38;92737.09;5110016;28;19934;-84
2021/05/19 10:05:07;;;;;;;;;;;;;;;22.06;39.79;92735.94;5110370;28;19920;-83
2021/05/19 10:07:33;;;;;;;;;;;;;;;22.01;38.35;92725.56;5110099;28;19955;-82
2021/05/19 10:09:59;;;;;;;;;;;;;;;22.35;39.34;92731.44;5109913;28;19964;-81
2021/05/19 10:12:26;;;;;;;;;;;;;;;22.71;39.23;92716.78;5110140;28;19920;-81
2021/05/19 10:14:52;;;;;;;;;;;;;;;23.17;37.26;92714.88;5110222;28;19920;-82
2021/05/19 10:17:20;;;;;;;;;;;;;;;23.30;36.38;92714.03;5110063;28;19928;-82
2021/05/19 10:19:49;;;;;;;;;;;;;;;23.39;35.76;92702.84;5110278;28;19965;-81
2021/05/19 10:22:16;;;;;;;;;;;;;;;23.42;35.35;92689.91;5110122;28;19986;-81
2021/05/19 10:24:46;;;;;;;;;;;;;;;23.64;35.64;92696.13;5110076;28;19926;-82
2021/05/19 10:27:15;;;;;;;;;;;;;;;23.91;34.47;92691.72;5109879;28;20378;-82
2021/05/19 10:29:58;;;;;;;;;;;;;;;24.13;34.18;92693.50;5109924;28;19924;-83
2021/05/19 10:32:34;;;;;;;;;;;;;;;24.59;33.44;92687.16;5105092;28;19924;-82
2021/05/19 10:35:01;;;;;;;;;;;;;;;24.67;31.02;92681.13;5107425;28;20050;-82
2021/05/19 10:37:35;;;;;;;;;;;;;;;24.87;30.93;92671.06;5109149;28;19920;-82
2021/05/19 10:40:19;;;;;;;;;;;;;;;24.74;31.36;92676.19;5109406;28;19969;-82
2021/05/19 10:42:53;;;;;;;;;;;;;;;24.71;30.70;92668.16;5102047;28;19920;-83
2021/05/19 10:45:20;;;;;;;;;;;;;;;24.80;30.18;92668.88;5113271;28;20010;-82
2021/05/19 10:47:46;;;;;;;;;;;;;;;24.96;31.27;92674.47;5113916;28;19950;-82
2021/05/19 10:50:18;;;;;;;;;;;;;;;25.00;31.44;92667.50;5115821;27;20426;-82
2021/05/19 10:57:12;;;;;;;;;;;;;;;25.30;31.88;92659.66;5113447;28;19919;-82
2021/05/19 10:58:41;;;;;;;;;;;;;;;25.62;30.17;92659.38;5113597;28;19926;-82
2021/05/19 11:01:10;;;;;;;;;;;;;;;25.87;29.18;92659.56;5113916;28;19923;-82
2021/05/19 11:03:36;;;;;;;;;;;;;;;26.13;30.20;92654.13;5113766;28;19923;-82
2021/05/19 11:06:04;;;;;;;;;;;;;;;26.13;29.64;92656.75;5112526;28;20414;-82
2021/05/19 11:08:31;;;;;;;;;;;;;;;26.03;28.12;92646.59;5113699;28;19977;-82
2021/05/19 11:11:11;;;;;;;;;;;;;;;26.15;29.14;92633.50;5113687;28;20371;-81
2021/05/19 11:13:52;;;;;;;;;;;;;;;26.20;29.38;92624.63;5113196;28;19931;-81
2021/05/19 11:16:24;;;;;;;;;;;;;;;25.99;28.93;92627.28;5127916;27;19967;-80
2021/05/19 11:19:07;;;;;;;;;;;;;;;25.68;28.58;92628.44;5133841;27;19998;-81
2021/05/19 11:21:34;;;;;;;;;;;;;;;25.43;29.11;92638.72;5134030;27;19923;-81
2021/05/19 11:24:04;;;;;;;;;;;;;;;25.57;28.95;92628.00;5133444;27;20294;-80
2021/05/19 11:26:35;;;;;;;;;;;;;;;25.72;29.12;92614.31;5124863;27;19926;-80
2021/05/19 11:29:02;;;;;;;;;;;;;;;26.15;28.55;92606.44;5112909;28;19923;-82
2021/05/19 11:31:33;;;;;;;;;;;;;;;26.06;28.38;92611.72;5112816;28;19919;-81
2021/05/19 11:34:00;;;;;;;;;;;;;;;26.02;28.96;92600.34;5113116;28;19996;-82
2021/05/19 11:36:33;;;;;;;;;;;;;;;26.27;28.88;92603.88;5113276;28;20325;-81
2021/05/19 11:39:02;;;;;;;;;;;;;;;26.12;27.98;92597.31;5112741;28;19930;-81
2021/05/19 11:41:28;;;;;;;;;;;;;;;26.29;27.97;92587.75;5113086;28;19923;-82
2021/05/19 11:43:54;;;;;;;;;;;;;;;25.98;27.20;92584.41;5115091;28;19920;-83
2021/05/19 11:46:21;;;;;;;;;;;;;;;25.97;27.30;92585.50;5113302;28;19923;-82
2021/05/19 11:48:51;;;;;;;;;;;;;;;26.00;27.17;92590.13;5111351;28;19927;-81
2021/05/19 11:51:18;;;;;;;;;;;;;;;26.06;27.55;92582.78;5112699;28;19977;-82
2021/05/19 11:53:54;;;;;;;;;;;;;;;25.97;28.23;92587.38;5111291;28;20856;-81
2021/05/19 11:56:20;;;;;;;;;;;;;;;25.84;28.19;92574.16;5112485;28;20407;-81
2021/05/19 11:58:46;;;;;;;;;;;;;;;25.67;28.52;92584.78;5112747;28;20316;-82
2021/05/19 12:01:14;;;;;;;;;;;;;;;25.80;28.74;92581.16;5112537;28;19927;-82
2021/05/19 12:03:40;;;;;;;;;;;;;;;25.91;28.04;92570.25;5112327;28;20317;-82
2021/05/19 12:06:07;;;;;;;;;;;;;;;25.79;27.82;92571.72;5112407;28;19924;-82
2021/05/19 12:08:38;;;;;;;;;;;;;;;25.54;27.85;92574.19;5112603;28;19919;-81
2021/05/19 12:11:05;;;;;;;;;;;;;;;25.61;27.99;92569.19;5112432;28;20293;-81
2021/05/19 12:13:34;;;;;;;;;;;;;;;25.87;28.03;92562.97;5112546;28;20046;-81
2021/05/19 12:16:00;;;;;;;;;;;;;;;26.01;27.33;92562.72;5112518;28;19950;-81
2021/05/19 12:18:26;;;;;;;;;;;;;;;26.06;27.57;92555.72;5112038;28;19920;-82
2021/05/19 12:20:52;;;;;;;;;;;;;;;26.09;27.32;92555.84;5112256;28;19969;-82
2021/05/19 12:23:19;;;;;;;;;;;;;;;25.94;24.46;92559.06;5112401;28;19919;-81
2021/05/19 12:25:45;;;;;;;;;;;;;;;25.74;23.76;92554.25;5112124;28;19923;-81
2021/05/19 12:28:19;;;;;;;;;;;;;;;25.60;25.13;92556.38;5112171;27;19942;-82
2021/05/19 12:30:45;;;;;;;;;;;;;;;25.59;24.86;92549.59;5107631;28;19966;-82
2021/05/19 12:33:13;;;;;;;;;;;;;;;25.73;25.31;92554.59;5109753;28;19927;-83
2021/05/19 12:35:45;;;;;;;;;;;;;;;26.03;25.59;92543.97;5110957;28;20382;-82
2021/05/19 12:38:11;;;;;;;;;;;;;;;26.15;24.71;92538.00;5111417;28;19920;-81
2021/05/19 12:40:39;;;;;;;;;;;;;;;26.08;24.52;92533.25;5111840;28;20287;-82
2021/05/19 12:43:07;;;;;;;;;;;;;;;26.23;24.29;92528.44;5110962;28;19920;-82
2021/05/19 12:45:35;;;;;;;;;;;;;;;26.43;25.17;92526.91;5111338;28;19965;-82
2021/05/19 12:48:05;;;;;;;;;;;;;;;26.18;23.65;92524.16;5111247;28;19939;-81
2021/05/19 12:50:38;;;;;;;;;;;;;;;26.11;23.64;92518.69;5111335;28;19965;-81
2021/05/19 12:53:04;;;;;;;;;;;;;;;25.98;24.39;92515.22;5110793;28;19930;-81